TimeCST,TemperatureF,Dew PointF,Humidity,Sea Level PressureIn,VisibilityMPH,Wind Direction,Wind SpeedMPH,Gust SpeedMPH,PrecipitationIn,Events,Conditions,WindDirDegrees,DateUTC
12:53 AM,37.0,25.0,62,30.11,10.0,East,5.8,-,N/A,,Clear,90,2013-02-06 06:53:00
1:53 AM,36.0,26.1,67,30.10,10.0,East,5.8,-,N/A,,Clear,100,2013-02-06 07:53:00
2:53 AM,35.1,26.1,70,30.10,10.0,East,5.8,-,N/A,,Clear,100,2013-02-06 08:53:00
3:53 AM,35.1,27.0,72,30.10,10.0,SE,8.1,-,N/A,,Clear,140,2013-02-06 09:53:00
4:53 AM,34.0,27.0,75,30.10,10.0,SSE,9.2,-,N/A,,Clear,150,2013-02-06 10:53:00
5:53 AM,34.0,27.0,75,30.09,10.0,ESE,6.9,-,N/A,,Clear,120,2013-02-06 11:53:00
6:53 AM,35.1,27.0,72,30.10,10.0,SE,12.7,-,N/A,,Clear,140,2013-02-06 12:53:00
7:53 AM,36.0,27.0,70,30.11,10.0,SSE,9.2,-,N/A,,Clear,150,2013-02-06 13:53:00
8:53 AM,41.0,28.9,62,30.10,10.0,SSE,13.8,-,N/A,,Clear,160,2013-02-06 14:53:00
9:53 AM,46.0,30.0,54,30.09,10.0,SSE,17.3,-,N/A,,Clear,150,2013-02-06 15:53:00
10:53 AM,51.1,30.0,44,30.06,10.0,SSE,17.3,27.6,N/A,,Clear,150,2013-02-06 16:53:00
11:53 AM,57.0,32.0,39,30.03,10.0,South,13.8,20.7,N/A,,Clear,170,2013-02-06 17:53:00
12:53 PM,57.9,35.1,42,30.00,10.0,South,15.0,-,N/A,,Clear,170,2013-02-06 18:53:00
1:53 PM,59.0,35.1,41,29.96,10.0,SE,11.5,21.9,N/A,,Clear,140,2013-02-06 19:53:00
2:53 PM,60.1,39.0,46,29.94,10.0,SSE,15.0,19.6,N/A,,Overcast,160,2013-02-06 20:53:00
3:53 PM,60.1,39.9,47,29.91,10.0,SSE,13.8,-,N/A,,Overcast,160,2013-02-06 21:53:00
4:53 PM,60.1,39.9,47,29.89,10.0,SE,11.5,-,N/A,,Clear,140,2013-02-06 22:53:00
5:53 PM,57.0,39.0,51,29.89,10.0,SSE,12.7,-,N/A,,Mostly Cloudy,150,2013-02-06 23:53:00
6:53 PM,55.0,37.9,53,29.90,10.0,SSE,13.8,-,N/A,,Partly Cloudy,150,2013-02-07 00:53:00
7:53 PM,54.0,37.0,53,29.90,10.0,SSE,16.1,24.2,N/A,,Overcast,150,2013-02-07 01:53:00
8:53 PM,53.1,36.0,52,29.91,10.0,SSE,15.0,23.0,N/A,,Overcast,150,2013-02-07 02:53:00
9:53 PM,52.0,37.0,57,29.91,10.0,SE,16.1,-,N/A,,Overcast,140,2013-02-07 03:53:00
10:53 PM,51.1,37.0,59,29.92,10.0,SSE,12.7,-,N/A,,Overcast,150,2013-02-07 04:53:00
11:53 PM,50.0,37.9,63,29.92,10.0,SSE,6.9,-,N/A,,Overcast,160,2013-02-07 05:53:00